createdAt,value
2018-10-11T00:00:50.397Z,1008.70
2018-10-11T00:01:50.407Z,1008.69
2018-10-11T00:02:50.377Z,1008.71
2018-10-11T00:03:50.362Z,1008.68
2018-10-11T00:04:50.384Z,1008.68
2018-10-11T00:05:50.338Z,1008.73
2018-10-11T00:06:50.331Z,1008.75
2018-10-11T00:07:50.398Z,1008.71
2018-10-11T00:08:50.311Z,1008.69
2018-10-11T00:09:50.295Z,1008.74
2018-10-11T00:10:50.314Z,1008.81
2018-10-11T00:11:50.277Z,1008.71
2018-10-11T00:12:50.264Z,1008.74
2018-10-11T00:13:50.248Z,1008.71
2018-10-11T00:14:50.268Z,1008.73
2018-10-11T00:15:50.224Z,1008.80
2018-10-11T00:16:50.215Z,1008.78
2018-10-11T00:17:50.263Z,1008.82
2018-10-11T00:18:50.191Z,1008.85
2018-10-11T00:19:50.233Z,1008.77
2018-10-11T00:20:50.181Z,1008.76
2018-10-11T00:21:50.158Z,1008.78
2018-10-11T00:22:50.183Z,1008.74
2018-10-11T00:23:50.146Z,1008.73
2018-10-11T00:24:50.128Z,1008.77
2018-10-11T00:25:50.148Z,1008.79
2018-10-11T00:26:50.100Z,1008.78
2018-10-11T00:27:50.092Z,1008.78
2018-10-11T00:28:50.105Z,1008.79
2018-10-11T00:29:50.100Z,1008.83
2018-10-11T00:30:50.202Z,1008.79
2018-10-11T00:31:50.060Z,1008.80
2018-10-11T00:32:50.033Z,1008.82
2018-10-11T00:33:50.057Z,1008.78
2018-10-11T00:34:50.019Z,1008.78
2018-10-11T00:35:50.960Z,1008.75
2018-10-11T00:36:49.992Z,1008.72
2018-10-11T00:37:49.982Z,1008.74
2018-10-11T00:38:50.008Z,1008.73
2018-10-11T00:39:49.961Z,1008.73
2018-10-11T00:40:49.943Z,1008.70
2018-10-11T00:41:49.937Z,1008.69
2018-10-11T00:42:49.925Z,1008.65
2018-10-11T00:43:49.943Z,1008.68
2018-10-11T00:44:49.933Z,1008.67
2018-10-11T00:45:50.041Z,1008.65
2018-10-11T00:46:50.007Z,1008.67
2018-10-11T00:47:49.914Z,1008.61
2018-10-11T00:48:49.862Z,1008.63
2018-10-11T00:49:49.849Z,1008.66
2018-10-11T00:50:49.830Z,1008.59
2018-10-11T00:51:49.862Z,1008.53
2018-10-11T00:52:49.833Z,1008.52
2018-10-11T00:53:49.805Z,1008.57
2018-10-11T00:54:49.797Z,1008.62
2018-10-11T00:55:49.782Z,1008.60
2018-10-11T00:56:49.798Z,1008.66
2018-10-11T00:57:49.789Z,1008.62
2018-10-11T00:58:49.749Z,1008.57
2018-10-11T00:59:49.737Z,1008.57
2018-10-11T01:00:49.755Z,1008.52
2018-10-11T01:01:49.712Z,1008.46
2018-10-11T01:02:49.701Z,1008.41
2018-10-11T01:03:49.766Z,1008.42
2018-10-11T01:04:49.706Z,1008.40
2018-10-11T01:05:49.665Z,1008.38
2018-10-11T01:06:49.653Z,1008.35
2018-10-11T01:07:49.669Z,1008.32
2018-10-11T01:08:49.632Z,1008.31
2018-10-11T01:09:49.650Z,1008.33
2018-10-11T01:10:49.608Z,1008.33
2018-10-11T01:11:49.597Z,1008.34
2018-10-11T01:12:49.627Z,1008.30
2018-10-11T01:13:49.603Z,1008.30
2018-10-11T01:14:49.593Z,1008.37
2018-10-11T01:15:49.602Z,1008.30
2018-10-11T01:16:49.544Z,1008.31
2018-10-11T01:17:49.528Z,1008.28
2018-10-11T01:18:49.517Z,1008.32
2018-10-11T01:19:49.561Z,1008.29
2018-10-11T01:20:49.531Z,1008.32
2018-10-11T01:21:49.479Z,1008.29
2018-10-11T01:22:49.469Z,1008.32
2018-10-11T01:23:49.560Z,1008.33
2018-10-11T01:24:49.491Z,1008.35
2018-10-11T01:25:49.442Z,1008.34
2018-10-11T01:26:49.430Z,1008.31
2018-10-11T01:27:49.420Z,1008.36
2018-10-11T01:28:49.402Z,1008.36
2018-10-11T01:29:49.616Z,1008.33
2018-10-11T01:30:49.378Z,1008.32
2018-10-11T01:31:49.371Z,1008.36
2018-10-11T01:32:49.355Z,1008.32
2018-10-11T01:33:49.346Z,1008.35
2018-10-11T01:34:49.375Z,1008.30
2018-10-11T01:35:49.327Z,1008.36
2018-10-11T01:36:49.410Z,1008.33
2018-10-11T01:37:49.304Z,1008.25
2018-10-11T01:38:49.387Z,1008.34
2018-10-11T01:39:49.324Z,1008.33
2018-10-11T01:40:49.270Z,1008.31
2018-10-11T01:41:49.264Z,1008.35
2018-10-11T01:42:49.251Z,1008.33
2018-10-11T01:43:49.299Z,1008.28
2018-10-11T01:44:49.264Z,1008.29
2018-10-11T01:45:49.216Z,1008.25
2018-10-11T01:46:49.204Z,1008.26
2018-10-11T01:47:49.191Z,1008.30
2018-10-11T01:48:49.177Z,1008.26
2018-10-11T01:49:49.203Z,1008.26
2018-10-11T01:50:49.224Z,1008.23
2018-10-11T01:51:49.146Z,1008.18
2018-10-11T01:52:49.135Z,1008.15
2018-10-11T01:53:49.122Z,1008.10
2018-10-11T01:54:49.118Z,1008.10
2018-10-11T01:55:49.144Z,1008.10
2018-10-11T01:56:49.199Z,1008.09
2018-10-11T01:57:49.081Z,1008.02
2018-10-11T01:58:49.065Z,1008.12
2018-10-11T01:59:49.932Z,1008.13
2018-10-11T02:00:49.084Z,1008.15
2018-10-11T02:01:49.029Z,1008.09
2018-10-11T02:02:49.031Z,1008.11
2018-10-11T02:03:49.012Z,1008.09
2018-10-11T02:04:49.003Z,1008.10
2018-10-11T02:05:49.033Z,1008.07
2018-10-11T02:06:48.975Z,1008.07
2018-10-11T02:07:48.966Z,1008.09
2018-10-11T02:08:48.953Z,1007.99
2018-10-11T02:09:48.942Z,1008.03
2018-10-11T02:10:48.965Z,1008.01
2018-10-11T02:11:48.922Z,1008.02
2018-10-11T02:12:48.912Z,1008.01
2018-10-11T02:13:48.896Z,1008.02
2018-10-11T02:14:48.885Z,1007.98
2018-10-11T02:15:48.925Z,1008.05
2018-10-11T02:16:48.893Z,1008.03
2018-10-11T02:17:48.849Z,1008.08
2018-10-11T02:18:48.838Z,1008.04
2018-10-11T02:19:48.858Z,1008.05
2018-10-11T02:20:48.820Z,1008.06
2018-10-11T02:21:48.809Z,1008.04
2018-10-11T02:22:48.794Z,1007.95
2018-10-11T02:23:48.846Z,1007.95
2018-10-11T02:24:48.819Z,1007.93
2018-10-11T02:25:48.760Z,1007.90
2018-10-11T02:26:48.749Z,1007.86
2018-10-11T02:27:48.742Z,1007.91
2018-10-11T02:28:48.731Z,1007.91
2018-10-11T02:29:48.748Z,1007.94
2018-10-11T02:30:48.702Z,1007.90
2018-10-11T02:31:48.743Z,1007.94
2018-10-11T02:32:48.698Z,1007.94
2018-10-11T02:33:48.702Z,1007.98
2018-10-11T02:34:48.658Z,1007.98
2018-10-11T02:35:48.647Z,1008.04
2018-10-11T02:36:48.631Z,1008.03
2018-10-11T02:37:48.627Z,1008.02
2018-10-11T02:38:48.647Z,1008.07
2018-10-11T02:39:48.607Z,1008.07
2018-10-11T02:40:48.591Z,1008.03
2018-10-11T02:41:48.613Z,1008.05
2018-10-11T02:42:48.585Z,1008.02
2018-10-11T02:43:48.585Z,1007.99
2018-10-11T02:44:48.541Z,1008.01
2018-10-11T02:45:48.541Z,1008.04
2018-10-11T02:46:48.552Z,1008.04
2018-10-11T02:47:48.512Z,1008.01
2018-10-11T02:48:48.530Z,1007.98
2018-10-11T02:49:48.486Z,1007.95
2018-10-11T02:50:48.476Z,1007.92
2018-10-11T02:51:48.464Z,1007.94
2018-10-11T02:52:48.457Z,1007.93
2018-10-11T02:53:48.492Z,1007.91
2018-10-11T02:54:48.433Z,1007.89
2018-10-11T02:55:48.423Z,1007.93
2018-10-11T02:56:48.410Z,1007.95
2018-10-11T02:57:48.395Z,1007.93
2018-10-11T02:58:48.445Z,1007.98
2018-10-11T02:59:48.408Z,1007.91
2018-10-11T03:00:48.370Z,1007.90
2018-10-11T03:01:48.348Z,1007.91
2018-10-11T03:02:48.383Z,1007.90
2018-10-11T03:03:48.400Z,1007.90
2018-10-11T03:04:48.317Z,1007.80
2018-10-11T03:05:48.305Z,1007.84
2018-10-11T03:06:48.338Z,1007.78
2018-10-11T03:07:48.288Z,1007.77
2018-10-11T03:08:48.314Z,1007.77
2018-10-11T03:09:48.259Z,1007.74
2018-10-11T03:10:48.255Z,1007.77
2018-10-11T03:11:48.239Z,1007.81
2018-10-11T03:12:48.227Z,1007.72
2018-10-11T03:13:48.243Z,1007.80
2018-10-11T03:14:48.202Z,1007.79
2018-10-11T03:15:48.228Z,1007.72
2018-10-11T03:16:48.211Z,1007.72
2018-10-11T03:17:48.169Z,1007.71
2018-10-11T03:18:48.164Z,1007.71
2018-10-11T03:19:48.266Z,1007.69
2018-10-11T03:20:48.140Z,1007.75
2018-10-11T03:21:48.168Z,1007.77
2018-10-11T03:22:48.118Z,1007.75
2018-10-11T03:23:48.106Z,1007.80
2018-10-11T03:24:48.129Z,1007.81
2018-10-11T03:25:48.138Z,1007.80
2018-10-11T03:26:48.070Z,1007.87
2018-10-11T03:27:48.057Z,1007.86
2018-10-11T03:28:48.045Z,1007.88
2018-10-11T03:29:48.036Z,1007.88
2018-10-11T03:30:48.060Z,1007.92
2018-10-11T03:31:48.014Z,1007.96
2018-10-11T03:32:48.001Z,1007.99
2018-10-11T03:33:48.023Z,1008.03
2018-10-11T03:34:48.012Z,1008.07
2018-10-11T03:35:48.248Z,1008.11
2018-10-11T03:36:47.960Z,1008.10
2018-10-11T03:37:47.943Z,1008.14
2018-10-11T03:38:47.996Z,1008.07
2018-10-11T03:39:47.924Z,1008.10
2018-10-11T03:40:47.942Z,1008.01
2018-10-11T03:41:47.937Z,1008.00
2018-10-11T03:42:47.893Z,1008.09
2018-10-11T03:43:47.878Z,1008.07
2018-10-11T03:44:47.878Z,1008.04
2018-10-11T03:45:47.861Z,1008.07
2018-10-11T03:46:47.881Z,1008.05
2018-10-11T03:47:47.851Z,1008.03
2018-10-11T03:48:47.860Z,1008.11
2018-10-11T03:49:47.879Z,1008.08
2018-10-11T03:50:47.841Z,1008.11
2018-10-11T03:51:47.796Z,1008.08
2018-10-11T03:52:47.785Z,1008.10
2018-10-11T03:53:47.772Z,1008.11
2018-10-11T03:54:47.804Z,1008.14
2018-10-11T03:55:47.746Z,1008.09
2018-10-11T03:56:47.742Z,1008.08
2018-10-11T03:57:47.729Z,1008.12
2018-10-11T03:58:47.712Z,1008.17
2018-10-11T03:59:47.730Z,1008.24
2018-10-11T04:00:47.721Z,1008.30
2018-10-11T04:01:47.679Z,1008.29
2018-10-11T04:02:47.694Z,1008.24
2018-10-11T04:03:47.655Z,1008.25
2018-10-11T04:04:47.645Z,1008.16
2018-10-11T04:05:47.745Z,1008.12
2018-10-11T04:06:47.631Z,1008.13
2018-10-11T04:07:47.613Z,1008.13
2018-10-11T04:08:47.598Z,1008.11
2018-10-11T04:09:47.586Z,1008.05
2018-10-11T04:10:47.602Z,1008.03
2018-10-11T04:11:47.568Z,1008.05
2018-10-11T04:12:47.554Z,1008.06
2018-10-11T04:13:47.579Z,1008.03
2018-10-11T04:14:47.547Z,1008.03
2018-10-11T04:15:47.521Z,1008.02
2018-10-11T04:16:47.512Z,1008.06
2018-10-11T04:17:47.528Z,1007.98
2018-10-11T04:18:47.517Z,1007.97
2018-10-11T04:19:47.473Z,1007.92
2018-10-11T04:20:47.466Z,1007.93
2018-10-11T04:21:47.535Z,1007.99
2018-10-11T04:22:47.475Z,1008.01
2018-10-11T04:23:47.453Z,1007.95
2018-10-11T04:24:47.428Z,1007.95
2018-10-11T04:25:47.408Z,1008.01
2018-10-11T04:26:47.394Z,1007.94
2018-10-11T04:27:47.418Z,1007.98
2018-10-11T04:28:47.373Z,1007.99
2018-10-11T04:29:47.361Z,1008.00
2018-10-11T04:30:47.353Z,1008.01
2018-10-11T04:31:47.368Z,1007.92
2018-10-11T04:32:47.327Z,1007.95
2018-10-11T04:33:47.368Z,1007.95
2018-10-11T04:34:47.309Z,1007.97
2018-10-11T04:35:47.291Z,1007.93
2018-10-11T04:36:47.286Z,1007.92
2018-10-11T04:37:47.302Z,1007.95
2018-10-11T04:38:47.264Z,1007.93
2018-10-11T04:39:47.278Z,1007.90
2018-10-11T04:40:47.237Z,1007.83
2018-10-11T04:41:47.225Z,1007.82
2018-10-11T04:42:47.323Z,1007.91
2018-10-11T04:43:47.207Z,1007.87
2018-10-11T04:44:47.191Z,1007.95
2018-10-11T04:45:47.250Z,1007.91
2018-10-11T04:46:47.211Z,1007.95
2018-10-11T04:47:47.162Z,1007.93
2018-10-11T04:48:47.151Z,1007.94
2018-10-11T04:49:47.137Z,1007.89
2018-10-11T04:50:47.126Z,1007.88
2018-10-11T04:51:47.155Z,1007.81
2018-10-11T04:52:47.134Z,1007.84
2018-10-11T04:53:47.129Z,1007.76
2018-10-11T04:54:47.079Z,1007.89
2018-10-11T04:55:47.068Z,1007.89
2018-10-11T04:56:47.058Z,1007.91
2018-10-11T04:57:47.054Z,1008.02
2018-10-11T04:58:47.073Z,1007.97
2018-10-11T04:59:47.051Z,1007.99
2018-10-11T05:00:47.012Z,1007.98
2018-10-11T05:01:47.089Z,1007.95
2018-10-11T05:02:47.034Z,1007.92
2018-10-11T05:03:46.980Z,1007.90
2018-10-11T05:04:46.965Z,1007.91
2018-10-11T05:05:46.967Z,1007.89
2018-10-11T05:06:46.961Z,1007.88
2018-10-11T05:07:46.966Z,1007.88
2018-10-11T05:08:46.923Z,1007.91
2018-10-11T05:09:46.914Z,1007.92
2018-10-11T05:10:46.904Z,1007.93
2018-10-11T05:11:46.891Z,1007.92
2018-10-11T05:12:46.911Z,1007.97
2018-10-11T05:13:46.895Z,1008.03
2018-10-11T05:14:46.861Z,1008.07
2018-10-11T05:15:46.842Z,1008.09
2018-10-11T05:16:46.832Z,1008.06
2018-10-11T05:17:46.937Z,1008.14
2018-10-11T05:18:46.851Z,1008.14
2018-10-11T05:19:46.797Z,1008.24
2018-10-11T05:20:46.807Z,1008.20
2018-10-11T05:21:46.781Z,1008.25
2018-10-11T05:22:46.768Z,1008.25
2018-10-11T05:23:46.773Z,1008.30
2018-10-11T05:24:46.758Z,1008.32
2018-10-11T05:25:46.739Z,1008.31
2018-10-11T05:26:46.757Z,1008.30
2018-10-11T05:27:46.706Z,1008.22
2018-10-11T05:28:46.701Z,1008.27
2018-10-11T05:29:46.685Z,1008.28
2018-10-11T05:30:46.718Z,1008.27
2018-10-11T05:31:46.666Z,1008.24
2018-10-11T05:32:46.657Z,1008.24
2018-10-11T05:33:46.669Z,1008.21
2018-10-11T05:34:46.634Z,1008.19
2018-10-11T05:35:46.617Z,1008.18
2018-10-11T05:36:46.615Z,1008.16
2018-10-11T05:37:46.599Z,1008.12
2018-10-11T05:38:46.614Z,1008.14
2018-10-11T05:39:46.574Z,1008.12
2018-10-11T05:40:46.601Z,1008.17
2018-10-11T05:41:46.606Z,1008.08
2018-10-11T05:42:46.546Z,1008.12
2018-10-11T05:43:46.532Z,1008.10
2018-10-11T05:44:46.520Z,1008.07
2018-10-11T05:45:46.528Z,1008.05
2018-10-11T05:46:46.532Z,1008.10
2018-10-11T05:47:46.485Z,1008.12
2018-10-11T05:48:46.471Z,1008.03
2018-10-11T05:49:46.490Z,1008.11
2018-10-11T05:50:46.448Z,1008.08
2018-10-11T05:51:46.459Z,1008.07
2018-10-11T05:52:46.434Z,1008.10
2018-10-11T05:53:46.432Z,1008.09
2018-10-11T05:54:46.454Z,1008.10
2018-10-11T05:55:46.400Z,1008.10
2018-10-11T05:56:46.496Z,1008.14
2018-10-11T05:57:46.398Z,1008.17
2018-10-11T05:58:46.364Z,1008.24
2018-10-11T05:59:46.353Z,1008.24
2018-10-11T06:00:46.351Z,1008.28
2018-10-11T06:01:46.375Z,1008.35
2018-10-11T06:02:46.317Z,1008.38
2018-10-11T06:03:46.311Z,1008.42
2018-10-11T06:04:46.301Z,1008.40
2018-10-11T06:05:46.285Z,1008.45
2018-10-11T06:06:46.304Z,1008.50
2018-10-11T06:07:46.266Z,1008.46
2018-10-11T06:08:46.254Z,1008.48
2018-10-11T06:09:46.246Z,1008.56
2018-10-11T06:10:46.273Z,1008.63
2018-10-11T06:11:46.237Z,1008.54
2018-10-11T06:12:46.214Z,1008.62
2018-10-11T06:13:46.232Z,1008.59
2018-10-11T06:14:46.190Z,1008.61
2018-10-11T06:15:46.175Z,1008.58
2018-10-11T06:16:46.163Z,1008.57
2018-10-11T06:17:46.267Z,1008.62
2018-10-11T06:18:46.168Z,1008.62
2018-10-11T06:19:46.127Z,1008.62
2018-10-11T06:20:46.125Z,1008.57
2018-10-11T06:21:46.167Z,1008.57
2018-10-11T06:22:46.140Z,1008.58
2018-10-11T06:23:46.087Z,1008.62
2018-10-11T06:24:46.162Z,1008.64
2018-10-11T06:25:46.069Z,1008.71
2018-10-11T06:26:46.060Z,1008.62
2018-10-11T06:27:46.075Z,1008.64
2018-10-11T06:28:46.029Z,1008.62
2018-10-11T06:29:46.055Z,1008.65
2018-10-11T06:30:46.020Z,1008.64
2018-10-11T06:31:46.001Z,1008.67
2018-10-11T06:32:45.989Z,1008.64
2018-10-11T06:33:46.018Z,1008.64
2018-10-11T06:34:46.003Z,1008.63
2018-10-11T06:35:45.977Z,1008.69
2018-10-11T06:36:45.943Z,1008.70
2018-10-11T06:37:45.970Z,1008.66
2018-10-11T06:38:45.929Z,1008.69
2018-10-11T06:39:45.934Z,1008.73
2018-10-11T06:40:45.903Z,1008.71
2018-10-11T06:41:45.970Z,1008.80
2018-10-11T06:42:45.994Z,1008.75
2018-10-11T06:43:45.872Z,1008.77
2018-10-11T06:44:45.901Z,1008.81
2018-10-11T06:45:45.843Z,1008.84
2018-10-11T06:46:45.837Z,1008.88
2018-10-11T06:47:45.826Z,1008.83
2018-10-11T06:48:45.807Z,1008.93
2018-10-11T06:49:45.834Z,1008.92
2018-10-11T06:50:45.790Z,1008.99
2018-10-11T06:51:45.779Z,1008.94
2018-10-11T06:52:45.813Z,1008.89
2018-10-11T06:53:45.750Z,1008.95
2018-10-11T06:54:45.736Z,1008.97
2018-10-11T06:55:45.755Z,1009.03
2018-10-11T06:56:45.740Z,1009.10
2018-10-11T06:57:45.750Z,1009.11
2018-10-11T06:58:45.691Z,1009.00
2018-10-11T06:59:45.688Z,1009.00
2018-10-11T07:00:45.674Z,1008.99
2018-10-11T07:01:45.846Z,1009.08
2018-10-11T07:02:45.694Z,1009.03
2018-10-11T07:03:45.644Z,1009.08
2018-10-11T07:04:45.706Z,1009.12
2018-10-11T07:05:45.655Z,1009.05
2018-10-11T07:06:45.614Z,1009.13
2018-10-11T07:07:45.596Z,1009.12
2018-10-11T07:08:45.602Z,1009.06
2018-10-11T07:09:45.608Z,1009.07
2018-10-11T07:10:45.559Z,1009.10
2018-10-11T07:11:45.550Z,1009.08
2018-10-11T07:12:45.538Z,1009.09
2018-10-11T07:13:45.630Z,1009.08
2018-10-11T07:14:45.512Z,1009.13
2018-10-11T07:15:45.508Z,1009.25
2018-10-11T07:16:45.500Z,1009.23
2018-10-11T07:17:45.492Z,1009.16
2018-10-11T07:18:45.504Z,1009.16
2018-10-11T07:19:45.461Z,1009.16
2018-10-11T07:20:45.454Z,1009.19
2018-10-11T07:21:45.476Z,1009.22
2018-10-11T07:22:45.429Z,1009.23
2018-10-11T07:23:45.423Z,1009.26
2018-10-11T07:24:45.404Z,1009.27
2018-10-11T07:25:45.427Z,1009.27
2018-10-11T07:26:45.381Z,1009.27
2018-10-11T07:27:45.368Z,1009.30
2018-10-11T07:28:45.359Z,1009.29
2018-10-11T07:29:45.343Z,1009.30
2018-10-11T07:30:45.367Z,1009.32
2018-10-11T07:31:45.331Z,1009.36
2018-10-11T07:32:45.364Z,1009.33
2018-10-11T07:33:45.300Z,1009.34
2018-10-11T07:34:45.362Z,1009.29
2018-10-11T07:35:45.283Z,1009.31
2018-10-11T07:36:45.272Z,1009.32
2018-10-11T07:37:45.291Z,1009.41
2018-10-11T07:38:45.247Z,1009.40
2018-10-11T07:39:45.239Z,1009.45
2018-10-11T07:40:45.288Z,1009.52
2018-10-11T07:41:45.211Z,1009.58
2018-10-11T07:42:46.009Z,1009.51
2018-10-11T07:43:45.194Z,1009.49
2018-10-11T07:44:45.211Z,1009.51
2018-10-11T07:45:45.197Z,1009.58
2018-10-11T07:46:45.160Z,1009.58
2018-10-11T07:47:45.180Z,1009.58
2018-10-11T07:48:45.168Z,1009.64
2018-10-11T07:49:45.128Z,1009.55
2018-10-11T07:50:45.115Z,1009.52
2018-10-11T07:51:45.112Z,1009.61
2018-10-11T07:52:45.185Z,1009.62
2018-10-11T07:53:45.088Z,1009.54
2018-10-11T07:54:45.071Z,1009.50
2018-10-11T07:55:45.098Z,1009.57
2018-10-11T07:56:45.054Z,1009.51
2018-10-11T07:57:45.046Z,1009.58
2018-10-11T07:58:45.027Z,1009.58
2018-10-11T07:59:45.009Z,1009.54
2018-10-11T08:00:45.081Z,1009.58
2018-10-11T08:01:45.139Z,1009.61
2018-10-11T08:02:44.986Z,1009.59
2018-10-11T08:03:44.971Z,1009.64
2018-10-11T08:04:44.981Z,1009.58
2018-10-11T08:05:44.947Z,1009.55
2018-10-11T08:06:44.935Z,1009.55
2018-10-11T08:07:45.028Z,1009.56
2018-10-11T08:08:44.944Z,1009.50
2018-10-11T08:09:44.904Z,1009.52
2018-10-11T08:10:44.981Z,1009.52
2018-10-11T08:11:44.948Z,1009.59
2018-10-11T08:12:44.893Z,1009.63
2018-10-11T08:13:44.890Z,1009.59
2018-10-11T08:14:44.849Z,1009.64
2018-10-11T08:15:44.867Z,1009.64
2018-10-11T08:16:44.971Z,1009.62
2018-10-11T08:17:45.112Z,1009.57
2018-10-11T08:18:44.823Z,1009.63
2018-10-11T08:19:44.869Z,1009.62
2018-10-11T08:20:44.806Z,1009.60
2018-10-11T08:21:44.924Z,1009.64
2018-10-11T08:22:44.755Z,1009.53
2018-10-11T08:23:44.770Z,1009.56
2018-10-11T08:24:44.943Z,1009.61
2018-10-11T08:25:45.186Z,1009.57
2018-10-11T08:26:44.766Z,1009.58
2018-10-11T08:27:44.698Z,1009.63
2018-10-11T08:28:44.685Z,1009.62
2018-10-11T08:29:44.708Z,1009.65
2018-10-11T08:30:44.666Z,1009.65
2018-10-11T08:31:44.756Z,1009.64
2018-10-11T08:32:44.693Z,1009.73
2018-10-11T08:33:44.660Z,1009.72
2018-10-11T08:34:44.754Z,1009.74
2018-10-11T08:35:44.610Z,1009.64
2018-10-11T08:36:44.597Z,1009.71
2018-10-11T08:37:44.700Z,1009.69
2018-10-11T08:38:44.576Z,1009.69
2018-10-11T08:39:44.604Z,1009.74
2018-10-11T08:40:44.556Z,1009.70
2018-10-11T08:41:44.547Z,1009.67
2018-10-11T08:42:44.529Z,1009.65
2018-10-11T08:43:44.549Z,1009.63
2018-10-11T08:44:44.543Z,1009.58
2018-10-11T08:45:44.526Z,1009.58
2018-10-11T08:46:44.490Z,1009.66
2018-10-11T08:47:44.473Z,1009.67
2018-10-11T08:48:44.456Z,1009.67
2018-10-11T08:49:44.464Z,1009.64
2018-10-11T08:50:44.494Z,1009.64
2018-10-11T08:51:44.424Z,1009.65
2018-10-11T08:52:44.417Z,1009.64
2018-10-11T08:53:44.533Z,1009.65
2018-10-11T08:54:44.411Z,1009.63
2018-10-11T08:55:44.535Z,1009.68
2018-10-11T08:56:44.393Z,1009.61
2018-10-11T08:57:44.405Z,1009.65
2018-10-11T08:58:44.355Z,1009.61
2018-10-11T08:59:44.459Z,1009.62
2018-10-11T09:00:44.328Z,1009.65
2018-10-11T09:01:44.320Z,1009.59
2018-10-11T09:02:44.345Z,1009.63
2018-10-11T09:03:44.524Z,1009.58
2018-10-11T09:04:44.304Z,1009.62
2018-10-11T09:05:44.271Z,1009.62
2018-10-11T09:06:44.290Z,1009.63
2018-10-11T09:07:44.292Z,1009.60
2018-10-11T09:08:44.238Z,1009.63
2018-10-11T09:09:44.233Z,1009.62
2018-10-11T09:10:44.272Z,1009.56
2018-10-11T09:11:44.202Z,1009.64
2018-10-11T09:12:44.215Z,1009.65
2018-10-11T09:13:44.307Z,1009.65
2018-10-11T09:14:44.181Z,1009.65
2018-10-11T09:15:44.161Z,1009.67
2018-10-11T09:16:44.153Z,1009.63
2018-10-11T09:17:44.145Z,1009.68
2018-10-11T09:18:44.157Z,1009.65
2018-10-11T09:19:44.142Z,1009.69
2018-10-11T09:20:44.106Z,1009.67
2018-10-11T09:21:44.091Z,1009.64
2018-10-11T09:22:44.120Z,1009.60
2018-10-11T09:23:44.097Z,1009.60
2018-10-11T09:24:44.068Z,1009.53
2018-10-11T09:25:44.052Z,1009.55
2018-10-11T09:26:44.066Z,1009.54
2018-10-11T09:27:44.024Z,1009.56
2018-10-11T09:28:44.034Z,1009.54
2018-10-11T09:29:44.001Z,1009.58
2018-10-11T09:30:43.996Z,1009.54
2018-10-11T09:31:44.008Z,1009.56
2018-10-11T09:32:43.968Z,1009.53
2018-10-11T09:33:43.956Z,1009.55
2018-10-11T09:34:43.977Z,1009.53
2018-10-11T09:35:43.939Z,1009.50
2018-10-11T09:36:43.943Z,1009.47
2018-10-11T09:37:43.913Z,1009.47
2018-10-11T09:38:43.904Z,1009.45
2018-10-11T09:39:43.921Z,1009.46
2018-10-11T09:40:43.917Z,1009.47
2018-10-11T09:41:43.866Z,1009.48
2018-10-11T09:42:43.871Z,1009.47
2018-10-11T09:43:43.845Z,1009.49
2018-10-11T09:44:43.839Z,1009.45
2018-10-11T09:45:43.860Z,1009.47
2018-10-11T09:46:43.814Z,1009.47
2018-10-11T09:47:43.804Z,1009.44
2018-10-11T09:48:43.819Z,1009.43
2018-10-11T09:49:43.777Z,1009.42
2018-10-11T09:50:43.807Z,1009.45
2018-10-11T09:51:43.754Z,1009.40
2018-10-11T09:52:43.793Z,1009.45
2018-10-11T09:53:43.736Z,1009.47
2018-10-11T09:54:43.761Z,1009.41
2018-10-11T09:55:43.752Z,1009.44
2018-10-11T09:56:43.701Z,1009.46
2018-10-11T09:57:43.694Z,1009.42
2018-10-11T09:58:43.678Z,1009.41
2018-10-11T09:59:43.676Z,1009.35
2018-10-11T10:00:43.700Z,1009.41
2018-10-11T10:01:43.654Z,1009.34
2018-10-11T10:02:43.632Z,1009.33
2018-10-11T10:03:43.625Z,1009.33
2018-10-11T10:04:43.608Z,1009.34
2018-10-11T10:05:43.641Z,1009.39
2018-10-11T10:06:43.592Z,1009.37
2018-10-11T10:07:43.576Z,1009.41
2018-10-11T10:08:43.585Z,1009.41
2018-10-11T10:09:43.643Z,1009.40
2018-10-11T10:10:43.543Z,1009.38
2018-10-11T10:11:43.535Z,1009.35
2018-10-11T10:12:43.559Z,1009.38
2018-10-11T10:13:43.536Z,1009.36
2018-10-11T10:14:43.499Z,1009.37
2018-10-11T10:15:43.646Z,1009.34
2018-10-11T10:16:43.485Z,1009.37
2018-10-11T10:17:43.463Z,1009.37
2018-10-11T10:18:43.492Z,1009.37
2018-10-11T10:19:43.454Z,1009.38
2018-10-11T10:20:43.453Z,1009.37
2018-10-11T10:21:43.557Z,1009.41
2018-10-11T10:22:43.418Z,1009.38
2018-10-11T10:23:43.536Z,1009.32
2018-10-11T10:24:43.387Z,1009.38
2018-10-11T10:25:43.376Z,1009.33
2018-10-11T10:26:43.436Z,1009.37
2018-10-11T10:27:43.354Z,1009.35
2018-10-11T10:28:43.390Z,1009.36
2018-10-11T10:29:43.335Z,1009.37
2018-10-11T10:30:43.319Z,1009.35
2018-10-11T10:31:43.313Z,1009.34
2018-10-11T10:32:43.311Z,1009.38
2018-10-11T10:33:43.322Z,1009.37
2018-10-11T10:34:43.279Z,1009.28
2018-10-11T10:35:43.293Z,1009.29
2018-10-11T10:36:43.252Z,1009.21
2018-10-11T10:37:43.240Z,1009.27
2018-10-11T10:38:43.233Z,1009.20
2018-10-11T10:39:43.279Z,1009.26
2018-10-11T10:40:43.207Z,1009.21
2018-10-11T10:41:43.222Z,1009.17
2018-10-11T10:42:43.187Z,1009.16
2018-10-11T10:43:43.182Z,1009.09
2018-10-11T10:44:43.191Z,1009.15
2018-10-11T10:45:43.154Z,1009.09
2018-10-11T10:46:43.159Z,1009.11
2018-10-11T10:47:43.161Z,1009.12
2018-10-11T10:48:43.185Z,1009.09
2018-10-11T10:49:43.114Z,1009.08
2018-10-11T10:50:43.094Z,1009.09
2018-10-11T10:51:43.084Z,1009.09
2018-10-11T10:52:43.105Z,1009.12
2018-10-11T10:53:43.071Z,1009.11
2018-10-11T10:54:43.054Z,1009.08
2018-10-11T10:55:43.076Z,1009.04
2018-10-11T10:56:43.037Z,1009.01
2018-10-11T10:57:43.018Z,1009.06
2018-10-11T10:58:43.584Z,1009.05
2018-10-11T10:59:43.088Z,1008.98
2018-10-11T11:00:42.992Z,1008.97
2018-10-11T11:01:42.977Z,1008.96
2018-10-11T11:02:42.964Z,1008.95
2018-10-11T11:03:42.996Z,1008.93
2018-10-11T11:04:43.024Z,1008.89
2018-10-11T11:05:42.943Z,1008.87
2018-10-11T11:06:42.921Z,1008.89
2018-10-11T11:07:42.907Z,1008.89
2018-10-11T11:08:42.921Z,1008.88
2018-10-11T11:09:42.885Z,1008.86
2018-10-11T11:10:42.873Z,1008.84
2018-10-11T11:11:42.902Z,1008.85
2018-10-11T11:12:42.857Z,1008.81
2018-10-11T11:13:42.869Z,1008.84
2018-10-11T11:14:42.828Z,1008.83
2018-10-11T11:15:42.818Z,1008.84
2018-10-11T11:16:42.809Z,1008.81
2018-10-11T11:17:42.837Z,1008.83
2018-10-11T11:18:42.836Z,1008.82
2018-10-11T11:19:42.811Z,1008.79
2018-10-11T11:20:42.765Z,1008.81
2018-10-11T11:21:42.751Z,1008.76
2018-10-11T11:22:42.739Z,1008.70
2018-10-11T11:23:42.759Z,1008.72
2018-10-11T11:24:42.717Z,1008.75
2018-10-11T11:25:42.732Z,1008.71
2018-10-11T11:26:42.720Z,1008.65
2018-10-11T11:27:42.720Z,1008.71
2018-10-11T11:28:42.709Z,1008.65
2018-10-11T11:29:42.673Z,1008.61
2018-10-11T11:30:42.682Z,1008.64
2018-10-11T11:31:42.642Z,1008.62
2018-10-11T11:32:42.635Z,1008.58
2018-10-11T11:33:42.618Z,1008.65
2018-10-11T11:34:42.637Z,1008.64
2018-10-11T11:35:42.594Z,1008.60
2018-10-11T11:36:42.589Z,1008.60
2018-10-11T11:37:42.573Z,1008.59
2018-10-11T11:38:42.563Z,1008.57
2018-10-11T11:39:42.677Z,1008.63
2018-10-11T11:40:42.542Z,1008.60
2018-10-11T11:41:42.532Z,1008.55
2018-10-11T11:42:42.517Z,1008.59
2018-10-11T11:43:42.505Z,1008.56
2018-10-11T11:44:42.599Z,1008.56
2018-10-11T11:45:42.501Z,1008.60
2018-10-11T11:46:42.471Z,1008.67
2018-10-11T11:47:42.495Z,1008.62
2018-10-11T11:48:42.525Z,1008.65
2018-10-11T11:49:42.443Z,1008.64
2018-10-11T11:50:42.431Z,1008.64
2018-10-11T11:51:42.413Z,1008.68
2018-10-11T11:52:42.413Z,1008.67
2018-10-11T11:53:42.436Z,1008.68
2018-10-11T11:54:42.387Z,1008.70
2018-10-11T11:55:42.377Z,1008.68
2018-10-11T11:56:42.360Z,1008.67
2018-10-11T11:57:42.355Z,1008.63
2018-10-11T11:58:42.383Z,1008.69
2018-10-11T11:59:42.323Z,1008.65
2018-10-11T12:00:42.369Z,1008.67
2018-10-11T12:01:42.305Z,1008.61
2018-10-11T12:02:42.359Z,1008.61
2018-10-11T12:03:42.281Z,1008.63
2018-10-11T12:04:42.281Z,1008.67
2018-10-11T12:05:42.291Z,1008.58